Time;durP1;ratioP1;P1;durP2;ratioP2;P2;SDS_P1;SDS_P2;PMS_P1;PMS_P2;Temp;Humidity;BMP_temperature;BMP_pressure;BME280_temperature;BME280_humidity;BME280_pressure;Samples;Min_cycle;Max_cycle;Signal;HPM_P1;HPM_P2
2023/06/28 00:01:10;;;;;;;;;;;18.00;96.10;;;;;;5005046;28;19995;-78
2023/06/28 00:03:37;;;;;;;;;;;18.00;96.10;;;;;;5040241;28;20371;-78
2023/06/28 00:06:03;;;;;;;;;;;18.00;96.20;;;;;;5022917;28;19919;-78
2023/06/28 00:08:28;;;;;;;;;;;18.00;96.20;;;;;;5025295;28;19908;-78
2023/06/28 00:10:55;;;;;;;;;;;18.00;96.20;;;;;;5001425;28;19996;-78
2023/06/28 00:13:21;;;;;;;;;;;18.00;96.30;;;;;;5039145;28;22267;-78
2023/06/28 00:15:49;;;;;;;;;;;18.10;96.20;;;;;;5024134;28;19920;-78
2023/06/28 00:18:15;;;;;;;;;;;18.10;96.20;;;;;;5007289;28;19913;-78
2023/06/28 00:20:44;;;;;;;;;;;18.00;96.20;;;;;;5003381;28;19928;-79
2023/06/28 00:23:11;;;;;;;;;;;18.00;96.30;;;;;;5022014;28;20380;-78
2023/06/28 00:25:37;;;;;;;;;;;18.00;96.30;;;;;;5004295;28;22279;-78
2023/06/28 00:28:03;;;;;;;;;;;18.00;96.40;;;;;;5023040;28;19913;-78
2023/06/28 00:30:29;;;;;;;;;;;17.90;96.50;;;;;;5024225;28;19917;-77
2023/06/28 00:32:55;;;;;;;;;;;17.90;96.50;;;;;;5039378;28;20004;-77
2023/06/28 00:35:20;;;;;;;;;;;17.90;96.60;;;;;;5023738;28;19919;-78
2023/06/28 00:37:46;;;;;;;;;;;17.90;96.60;;;;;;5023080;28;19992;-78
2023/06/28 00:40:11;;;;;;;;;;;17.90;96.70;;;;;;5024940;28;19909;-77
2023/06/28 00:42:37;;;;;;;;;;;17.90;96.80;;;;;;5022446;28;20000;-78
2023/06/28 00:45:03;;;;;;;;;;;17.90;96.90;;;;;;5024071;28;19970;-78
2023/06/28 00:47:30;;;;;;;;;;;17.80;96.90;;;;;;5025245;28;19948;-78
2023/06/28 00:49:56;;;;;;;;;;;17.80;96.90;;;;;;5022651;28;19920;-78
2023/06/28 00:52:22;;;;;;;;;;;17.80;97.00;;;;;;5039789;28;19982;-78
2023/06/28 00:54:48;;;;;;;;;;;17.70;97.00;;;;;;5022279;28;20837;-78
2023/06/28 00:57:13;;;;;;;;;;;17.70;97.00;;;;;;5007731;28;19909;-78
2023/06/28 00:59:40;;;;;;;;;;;17.70;97.10;;;;;;5020793;28;20358;-78
2023/06/28 01:02:05;;;;;;;;;;;17.70;97.10;;;;;;5037838;28;20434;-76
2023/06/28 01:04:32;;;;;;;;;;;17.70;97.20;;;;;;5000794;28;20016;-77
2023/06/28 01:06:59;;;;;;;;;;;17.70;97.20;;;;;;5022702;28;19913;-77
2023/06/28 01:09:26;;;;;;;;;;;17.70;97.30;;;;;;5024208;28;19913;-77
2023/06/28 01:11:52;;;;;;;;;;;17.70;97.30;;;;;;5004578;28;20007;-77
2023/06/28 01:14:18;;;;;;;;;;;17.70;97.30;;;;;;5000601;28;19909;-77
2023/06/28 01:16:45;;;;;;;;;;;17.70;97.30;;;;;;5000718;28;20299;-77
2023/06/28 01:19:13;;;;;;;;;;;17.70;97.40;;;;;;5001099;28;19912;-77
2023/06/28 01:21:41;;;;;;;;;;;17.70;97.40;;;;;;5006881;28;20016;-77
2023/06/28 01:24:10;;;;;;;;;;;17.60;97.40;;;;;;5018996;28;20527;-77
2023/06/28 01:26:36;;;;;;;;;;;17.60;97.40;;;;;;5023858;28;19936;-78
2023/06/28 01:29:02;;;;;;;;;;;17.60;97.50;;;;;;5037591;28;19917;-79
2023/06/28 01:31:28;;;;;;;;;;;17.60;97.50;;;;;;5022515;28;19916;-78
2023/06/28 01:33:54;;;;;;;;;;;17.60;97.50;;;;;;5023318;28;20375;-78
2023/06/28 01:36:20;;;;;;;;;;;17.60;97.50;;;;;;5020784;28;19925;-78
2023/06/28 01:38:47;;;;;;;;;;;17.60;97.60;;;;;;5000736;28;19917;-78
2023/06/28 01:41:13;;;;;;;;;;;17.50;97.60;;;;;;5004813;28;19917;-77
2023/06/28 01:43:40;;;;;;;;;;;17.50;97.70;;;;;;5000632;28;19913;-78
2023/06/28 01:46:05;;;;;;;;;;;17.50;97.80;;;;;;5023147;28;19917;-77
2023/06/28 01:48:31;;;;;;;;;;;17.50;97.90;;;;;;5022711;28;20316;-77
2023/06/28 01:50:57;;;;;;;;;;;17.50;97.90;;;;;;4998331;28;19912;-77
2023/06/28 01:53:23;;;;;;;;;;;17.50;98.00;;;;;;5018730;28;19924;-79
2023/06/28 01:55:48;;;;;;;;;;;17.40;98.00;;;;;;4999405;28;19928;-78
2023/06/28 01:58:14;;;;;;;;;;;17.40;98.10;;;;;;5001035;28;20008;-79
2023/06/28 02:00:40;;;;;;;;;;;17.40;98.20;;;;;;5000776;28;19921;-77
2023/06/28 02:03:06;;;;;;;;;;;17.30;98.30;;;;;;5023016;28;19924;-78
2023/06/28 02:05:33;;;;;;;;;;;17.30;98.40;;;;;;5000707;28;19913;-79
2023/06/28 02:08:02;;;;;;;;;;;17.30;98.60;;;;;;4998013;28;19915;-78
2023/06/28 02:10:27;;;;;;;;;;;17.20;98.70;;;;;;5023137;28;19913;-79
2023/06/28 02:12:53;;;;;;;;;;;17.10;98.80;;;;;;5037644;28;19958;-80
2023/06/28 02:15:19;;;;;;;;;;;17.00;98.90;;;;;;5022976;28;19909;-80
2023/06/28 02:17:44;;;;;;;;;;;16.90;99.20;;;;;;5019553;28;20012;-80
2023/06/28 02:20:10;;;;;;;;;;;16.70;99.30;;;;;;5021804;28;20388;-80
2023/06/28 02:22:36;;;;;;;;;;;16.60;99.60;;;;;;5004830;28;20284;-81
2023/06/28 02:25:02;;;;;;;;;;;16.50;99.70;;;;;;5004965;28;19916;-81
2023/06/28 02:27:27;;;;;;;;;;;16.50;99.90;;;;;;4998632;28;19920;-82
2023/06/28 02:29:53;;;;;;;;;;;16.50;99.90;;;;;;5021954;28;20005;-82
2023/06/28 02:32:18;;;;;;;;;;;16.40;99.90;;;;;;5022773;28;19998;-82
2023/06/28 02:34:44;;;;;;;;;;;16.40;99.90;;;;;;5004299;28;19909;-81
2023/06/28 02:37:09;;;;;;;;;;;16.30;99.90;;;;;;4998965;28;19928;-82
2023/06/28 02:39:35;;;;;;;;;;;16.30;99.90;;;;;;4998758;28;20145;-82
2023/06/28 02:42:01;;;;;;;;;;;16.30;99.90;;;;;;5022425;28;20300;-82
2023/06/28 02:44:26;;;;;;;;;;;16.30;99.90;;;;;;5023130;28;19920;-82
2023/06/28 02:46:52;;;;;;;;;;;16.30;99.90;;;;;;4997515;28;19909;-83
2023/06/28 02:49:17;;;;;;;;;;;16.30;99.90;;;;;;5022627;28;20003;-84
2023/06/28 02:51:43;;;;;;;;;;;16.20;99.90;;;;;;4999672;28;19920;-83
2023/06/28 02:54:09;;;;;;;;;;;16.10;99.90;;;;;;5003251;28;19934;-83
2023/06/28 02:56:34;;;;;;;;;;;16.00;99.90;;;;;;5022023;28;19909;-83
2023/06/28 02:59:00;;;;;;;;;;;15.90;99.90;;;;;;5037374;28;20333;-83
2023/06/28 03:01:25;;;;;;;;;;;15.90;99.90;;;;;;5000594;28;19979;-83
2023/06/28 03:03:51;;;;;;;;;;;15.80;99.90;;;;;;5021057;28;20018;-83
2023/06/28 03:06:17;;;;;;;;;;;15.80;99.90;;;;;;4999211;28;19916;-83
2023/06/28 03:08:42;;;;;;;;;;;15.70;99.90;;;;;;5021347;28;19952;-82
2023/06/28 03:11:08;;;;;;;;;;;15.70;99.90;;;;;;5019179;28;22264;-83
2023/06/28 03:13:33;;;;;;;;;;;15.70;99.90;;;;;;4999023;28;19924;-83
2023/06/28 03:15:59;;;;;;;;;;;15.80;99.90;;;;;;5021988;28;19909;-83
2023/06/28 03:18:25;;;;;;;;;;;15.80;99.90;;;;;;5000627;28;19909;-83
2023/06/28 03:20:50;;;;;;;;;;;15.80;99.90;;;;;;5019063;28;19921;-83
2023/06/28 03:23:16;;;;;;;;;;;15.80;99.90;;;;;;5003403;28;19996;-83
2023/06/28 03:25:41;;;;;;;;;;;15.90;99.90;;;;;;4998951;28;19912;-83
2023/06/28 03:28:07;;;;;;;;;;;15.90;99.90;;;;;;5036281;28;20325;-82
2023/06/28 03:30:33;;;;;;;;;;;15.90;99.90;;;;;;4998632;28;19921;-82
2023/06/28 03:32:59;;;;;;;;;;;15.90;99.90;;;;;;5020705;28;19917;-82
2023/06/28 03:35:24;;;;;;;;;;;15.90;99.90;;;;;;5002939;28;20323;-82
2023/06/28 03:37:50;;;;;;;;;;;15.90;99.90;;;;;;5003290;28;19942;-82
2023/06/28 03:40:16;;;;;;;;;;;15.90;99.90;;;;;;5035897;28;19917;-82
2023/06/28 03:42:41;;;;;;;;;;;15.90;99.90;;;;;;5021948;28;19921;-83
2023/06/28 03:45:07;;;;;;;;;;;15.90;99.90;;;;;;4996859;28;19917;-81
2023/06/28 03:47:32;;;;;;;;;;;15.80;99.90;;;;;;5035711;28;20369;-83
2023/06/28 03:49:58;;;;;;;;;;;15.80;99.90;;;;;;5020349;28;19909;-82
2023/06/28 03:52:23;;;;;;;;;;;15.80;99.90;;;;;;5036292;28;20374;-83
2023/06/28 03:54:49;;;;;;;;;;;15.70;99.90;;;;;;5020479;28;19917;-84
2023/06/28 03:57:14;;;;;;;;;;;15.70;99.90;;;;;;4998553;28;19924;-83
2023/06/28 03:59:40;;;;;;;;;;;15.70;99.90;;;;;;5021468;28;20376;-83
2023/06/28 04:02:05;;;;;;;;;;;15.60;99.90;;;;;;4999645;28;19913;-84
2023/06/28 04:04:31;;;;;;;;;;;15.60;99.90;;;;;;5036337;28;22435;-84
2023/06/28 04:06:57;;;;;;;;;;;15.60;99.90;;;;;;5021778;28;19920;-83
2023/06/28 04:09:22;;;;;;;;;;;15.60;99.90;;;;;;5014675;28;19921;-82
2023/06/28 04:11:49;;;;;;;;;;;15.60;99.90;;;;;;5000995;28;19909;-83
2023/06/28 04:14:14;;;;;;;;;;;15.60;99.90;;;;;;5036623;28;19952;-82
2023/06/28 04:16:40;;;;;;;;;;;15.70;99.90;;;;;;5003919;28;19920;-83
2023/06/28 04:19:05;;;;;;;;;;;15.60;99.90;;;;;;5020954;28;19913;-83
2023/06/28 04:21:32;;;;;;;;;;;15.60;99.90;;;;;;5001060;28;19912;-83
2023/06/28 04:23:59;;;;;;;;;;;15.60;99.90;;;;;;5020829;28;19921;-83
2023/06/28 04:26:27;;;;;;;;;;;15.50;99.90;;;;;;5003719;28;19920;-83
2023/06/28 04:28:53;;;;;;;;;;;15.50;99.90;;;;;;4998760;28;19921;-84
2023/06/28 04:31:19;;;;;;;;;;;15.50;99.90;;;;;;5035922;28;19959;-83
2023/06/28 04:33:45;;;;;;;;;;;15.50;99.90;;;;;;5003119;28;19967;-83
2023/06/28 04:36:11;;;;;;;;;;;15.40;99.90;;;;;;4996140;28;20381;-83
2023/06/28 04:38:39;;;;;;;;;;;15.40;99.90;;;;;;5020916;28;19949;-84
2023/06/28 04:41:04;;;;;;;;;;;15.40;99.90;;;;;;4997755;28;19942;-83
2023/06/28 04:43:39;;;;;;;;;;;15.40;99.90;;;;;;4998747;28;20238;-84
2023/06/28 04:46:05;;;;;;;;;;;15.40;99.90;;;;;;4999731;28;20007;-83
2023/06/28 04:48:31;;;;;;;;;;;15.30;99.90;;;;;;5003773;28;19919;-84
2023/06/28 04:50:58;;;;;;;;;;;15.30;99.90;;;;;;5022136;28;19937;-84
2023/06/28 04:53:24;;;;;;;;;;;15.40;99.90;;;;;;5024589;28;20059;-84
2023/06/28 04:55:50;;;;;;;;;;;15.40;99.90;;;;;;5023402;28;19947;-83
2023/06/28 04:58:15;;;;;;;;;;;15.40;99.90;;;;;;5007528;28;20015;-84
2023/06/28 05:00:41;;;;;;;;;;;15.40;99.90;;;;;;5023796;28;20410;-82
2023/06/28 05:03:07;;;;;;;;;;;15.40;99.90;;;;;;5025729;28;20431;-83
2023/06/28 05:05:33;;;;;;;;;;;15.40;99.90;;;;;;5022202;28;19924;-83
2023/06/28 05:08:00;;;;;;;;;;;15.40;99.90;;;;;;5005587;28;19909;-83
2023/06/28 05:10:27;;;;;;;;;;;15.50;99.90;;;;;;5024019;28;19924;-83
2023/06/28 05:12:53;;;;;;;;;;;15.50;99.90;;;;;;5000879;28;19912;-84
2023/06/28 05:15:18;;;;;;;;;;;15.50;99.90;;;;;;5006525;28;19916;-84
2023/06/28 05:17:44;;;;;;;;;;;15.50;99.90;;;;;;5002046;28;19913;-84
2023/06/28 05:20:09;;;;;;;;;;;15.50;99.90;;;;;;5023877;28;19923;-84
2023/06/28 05:22:43;;;;;;;;;;;15.40;99.90;;;;;;5023013;28;19923;-84
2023/06/28 05:25:09;;;;;;;;;;;15.40;99.90;;;;;;5005407;28;19917;-82
2023/06/28 05:27:35;;;;;;;;;;;15.40;99.90;;;;;;5023196;28;19913;-82
2023/06/28 05:30:00;;;;;;;;;;;15.40;99.90;;;;;;5001536;28;19991;-82
2023/06/28 05:32:33;;;;;;;;;;;15.40;99.90;;;;;;5023098;28;20327;-82
2023/06/28 05:35:01;;;;;;;;;;;15.40;99.90;;;;;;5018205;28;19963;-83
2023/06/28 05:37:27;;;;;;;;;;;15.40;99.90;;;;;;5023499;28;19925;-82
2023/06/28 05:39:52;;;;;;;;;;;15.40;99.90;;;;;;5020507;28;19921;-83
2023/06/28 05:42:18;;;;;;;;;;;15.50;99.90;;;;;;4999119;28;19917;-83
2023/06/28 05:44:44;;;;;;;;;;;15.60;99.90;;;;;;5022067;28;19952;-81
2023/06/28 05:47:09;;;;;;;;;;;15.60;99.90;;;;;;5020364;28;19966;-82
2023/06/28 05:49:37;;;;;;;;;;;15.60;99.90;;;;;;5004752;28;20135;-81
2023/06/28 05:52:05;;;;;;;;;;;15.70;99.90;;;;;;5023000;28;19937;-83
2023/06/28 05:54:31;;;;;;;;;;;15.70;99.90;;;;;;5022235;28;20424;-82
2023/06/28 05:56:57;;;;;;;;;;;15.70;99.90;;;;;;4998908;28;19948;-82
2023/06/28 05:59:24;;;;;;;;;;;15.70;99.90;;;;;;5000620;28;20381;-82
2023/06/28 06:01:49;;;;;;;;;;;15.70;99.90;;;;;;5022492;28;19979;-83
2023/06/28 06:04:15;;;;;;;;;;;15.70;99.90;;;;;;5022971;28;19944;-81
2023/06/28 06:06:40;;;;;;;;;;;15.70;99.90;;;;;;5023609;28;19913;-82
2023/06/28 06:09:06;;;;;;;;;;;15.70;99.90;;;;;;5023014;28;20134;-82
2023/06/28 06:11:32;;;;;;;;;;;15.70;99.90;;;;;;5023255;28;19917;-83
2023/06/28 06:13:58;;;;;;;;;;;15.70;99.90;;;;;;4999645;28;19917;-83
2023/06/28 06:16:29;;;;;;;;;;;15.70;99.90;;;;;;5005080;28;20431;-84
2023/06/28 06:18:55;;;;;;;;;;;15.70;99.90;;;;;;5023442;28;19972;-84
2023/06/28 06:21:21;;;;;;;;;;;15.70;99.90;;;;;;5021509;28;19913;-84
2023/06/28 06:23:47;;;;;;;;;;;15.80;99.90;;;;;;5000678;28;20412;-84
2023/06/28 06:26:12;;;;;;;;;;;15.80;99.90;;;;;;5037722;28;19916;-85
2023/06/28 06:28:38;;;;;;;;;;;15.80;99.90;;;;;;5005035;28;19924;-83
2023/06/28 06:31:03;;;;;;;;;;;15.80;99.90;;;;;;5037636;28;20007;-83
2023/06/28 06:33:29;;;;;;;;;;;15.90;99.90;;;;;;5022672;28;19917;-83
2023/06/28 06:35:56;;;;;;;;;;;15.80;99.90;;;;;;5022623;28;19917;-83
2023/06/28 06:38:24;;;;;;;;;;;15.90;99.90;;;;;;5005363;28;20347;-84
2023/06/28 06:40:50;;;;;;;;;;;15.80;99.90;;;;;;5021452;28;19928;-83
2023/06/28 06:43:16;;;;;;;;;;;15.80;99.90;;;;;;4999444;28;19969;-84
2023/06/28 06:45:41;;;;;;;;;;;15.80;99.90;;;;;;5005382;28;19959;-84
2023/06/28 06:48:09;;;;;;;;;;;15.90;99.90;;;;;;5021010;28;19915;-84
2023/06/28 06:50:34;;;;;;;;;;;15.90;99.90;;;;;;5018193;28;20447;-83
2023/06/28 06:53:00;;;;;;;;;;;15.90;99.90;;;;;;5022040;28;19909;-83
2023/06/28 06:55:29;;;;;;;;;;;16.00;99.90;;;;;;5019435;28;19916;-83
2023/06/28 06:57:54;;;;;;;;;;;15.90;99.90;;;;;;5020181;28;19912;-82
2023/06/28 07:00:20;;;;;;;;;;;15.90;99.90;;;;;;5004621;28;19913;-83
2023/06/28 07:02:46;;;;;;;;;;;16.00;99.90;;;;;;5020949;28;19924;-83
2023/06/28 07:05:15;;;;;;;;;;;16.00;99.90;;;;;;5022728;28;19913;-82
2023/06/28 07:07:41;;;;;;;;;;;16.10;99.90;;;;;;5022007;28;19909;-81
2023/06/28 07:10:07;;;;;;;;;;;16.20;99.90;;;;;;4997693;28;20047;-82
2023/06/28 07:12:34;;;;;;;;;;;16.30;99.90;;;;;;5022231;28;19924;-83
2023/06/28 07:14:59;;;;;;;;;;;16.30;99.90;;;;;;4999484;28;19920;-82
2023/06/28 07:17:25;;;;;;;;;;;16.30;99.90;;;;;;4999358;28;19912;-83
2023/06/28 07:19:52;;;;;;;;;;;16.40;99.90;;;;;;5021350;28;21272;-83
2023/06/28 07:22:19;;;;;;;;;;;16.30;99.90;;;;;;5004094;28;19978;-83
2023/06/28 07:24:46;;;;;;;;;;;16.40;99.90;;;;;;4997899;28;19924;-82
2023/06/28 07:27:12;;;;;;;;;;;16.40;99.90;;;;;;4998926;28;19971;-83
2023/06/28 07:29:38;;;;;;;;;;;16.50;99.90;;;;;;5002891;28;19921;-84
2023/06/28 07:32:04;;;;;;;;;;;16.50;99.90;;;;;;4999292;28;20379;-83
2023/06/28 07:34:31;;;;;;;;;;;16.60;99.90;;;;;;4998747;28;19924;-84
2023/06/28 07:36:57;;;;;;;;;;;16.60;99.90;;;;;;5020686;28;19940;-84
2023/06/28 07:39:23;;;;;;;;;;;16.70;99.90;;;;;;5020762;28;19956;-84
2023/06/28 07:41:49;;;;;;;;;;;16.70;99.90;;;;;;4998029;28;20480;-83
2023/06/28 07:44:14;;;;;;;;;;;16.80;99.90;;;;;;5003210;28;19916;-84
2023/06/28 07:46:40;;;;;;;;;;;16.80;99.90;;;;;;5003409;28;19909;-84
2023/06/28 07:49:06;;;;;;;;;;;16.90;99.90;;;;;;5020841;28;19913;-83
2023/06/28 07:51:31;;;;;;;;;;;16.90;99.90;;;;;;4998074;28;19917;-84
2023/06/28 07:53:57;;;;;;;;;;;17.00;99.90;;;;;;5001308;28;20276;-81
2023/06/28 07:56:22;;;;;;;;;;;17.10;99.90;;;;;;5021035;28;19916;-82
2023/06/28 07:58:48;;;;;;;;;;;17.10;99.90;;;;;;5020498;28;19916;-81
2023/06/28 08:01:15;;;;;;;;;;;17.00;99.90;;;;;;5020183;28;19969;-83
2023/06/28 08:03:41;;;;;;;;;;;17.10;99.90;;;;;;5021735;28;20373;-83
2023/06/28 08:06:07;;;;;;;;;;;17.10;99.90;;;;;;4996091;28;19909;-82
2023/06/28 08:08:32;;;;;;;;;;;17.20;99.90;;;;;;5004181;28;19970;-81
2023/06/28 08:10:58;;;;;;;;;;;17.20;99.90;;;;;;5018478;28;20004;-83
2023/06/28 08:13:23;;;;;;;;;;;17.20;99.90;;;;;;5037065;28;19913;-82
2023/06/28 08:15:51;;;;;;;;;;;17.30;99.90;;;;;;4998792;28;19913;-82
2023/06/28 08:18:20;;;;;;;;;;;17.30;99.90;;;;;;5021896;28;19913;-82
2023/06/28 08:20:49;;;;;;;;;;;17.40;99.90;;;;;;4998483;28;20403;-83
2023/06/28 08:23:26;;;;;;;;;;;17.40;99.90;;;;;;5005175;28;19916;-83
2023/06/28 08:25:56;;;;;;;;;;;17.40;99.90;;;;;;4996572;28;19916;-82
2023/06/28 08:28:25;;;;;;;;;;;17.40;99.90;;;;;;5014637;28;20358;-83
2023/06/28 08:30:56;;;;;;;;;;;17.40;99.90;;;;;;5024375;28;19913;-84
2023/06/28 08:33:24;;;;;;;;;;;17.40;99.90;;;;;;5019011;28;19920;-84
2023/06/28 08:35:59;;;;;;;;;;;17.40;99.90;;;;;;5005821;28;19967;-83
2023/06/28 08:38:28;;;;;;;;;;;17.40;99.90;;;;;;5003232;28;19917;-82
2023/06/28 08:40:56;;;;;;;;;;;17.40;99.90;;;;;;5005375;28;19913;-83
2023/06/28 08:43:27;;;;;;;;;;;17.40;99.90;;;;;;5001716;28;19917;-82
2023/06/28 08:45:58;;;;;;;;;;;17.40;99.90;;;;;;5001400;28;19921;-83
2023/06/28 08:48:24;;;;;;;;;;;17.50;99.90;;;;;;5001403;28;20623;-82
2023/06/28 08:50:53;;;;;;;;;;;17.50;99.90;;;;;;5037098;28;19916;-82
2023/06/28 08:53:28;;;;;;;;;;;17.50;99.90;;;;;;5023899;28;19960;-81
2023/06/28 08:56:01;;;;;;;;;;;17.60;99.90;;;;;;5001615;28;19913;-82
2023/06/28 08:58:33;;;;;;;;;;;17.80;99.90;;;;;;5005442;28;19916;-81
2023/06/28 09:00:59;;;;;;;;;;;17.80;99.90;;;;;;5000932;28;19921;-82
2023/06/28 09:03:35;;;;;;;;;;;17.80;99.90;;;;;;4999888;28;19924;-81
2023/06/28 09:06:06;;;;;;;;;;;17.80;99.90;;;;;;5004619;28;19913;-82
2023/06/28 09:08:36;;;;;;;;;;;17.90;99.90;;;;;;5002529;28;19991;-82
2023/06/28 09:11:17;;;;;;;;;;;17.90;99.90;;;;;;5003042;28;20434;-82
2023/06/28 09:13:46;;;;;;;;;;;18.00;99.90;;;;;;5003458;28;19913;-81
2023/06/28 09:16:17;;;;;;;;;;;18.00;99.90;;;;;;5022163;28;19920;-82
2023/06/28 09:18:53;;;;;;;;;;;18.00;99.90;;;;;;5021682;28;20000;-81
2023/06/28 09:21:28;;;;;;;;;;;18.00;99.90;;;;;;5036713;28;21168;-82
2023/06/28 09:23:56;;;;;;;;;;;18.00;99.90;;;;;;5017970;28;20054;-82
2023/06/28 09:26:35;;;;;;;;;;;18.10;99.90;;;;;;5021747;28;19949;-82
2023/06/28 09:29:11;;;;;;;;;;;18.10;99.90;;;;;;5000313;28;19919;-82
2023/06/28 09:31:47;;;;;;;;;;;18.10;99.90;;;;;;5022267;28;19913;-82
2023/06/28 09:34:23;;;;;;;;;;;18.20;99.90;;;;;;5003405;28;19912;-83
2023/06/28 09:36:58;;;;;;;;;;;18.30;99.90;;;;;;5003826;28;20016;-82
2023/06/28 09:39:37;;;;;;;;;;;18.40;99.90;;;;;;5021106;28;19920;-82
2023/06/28 09:42:12;;;;;;;;;;;18.50;99.90;;;;;;5001012;28;20008;-82
2023/06/28 09:44:54;;;;;;;;;;;18.60;99.90;;;;;;5001676;28;20384;-81
2023/06/28 09:47:34;;;;;;;;;;;18.60;99.90;;;;;;5001096;28;20399;-82
2023/06/28 09:50:06;;;;;;;;;;;18.60;99.90;;;;;;4999999;28;20343;-80
2023/06/28 09:52:41;;;;;;;;;;;18.40;99.90;;;;;;5000691;28;19913;-81
2023/06/28 09:55:16;;;;;;;;;;;18.30;99.90;;;;;;5036691;28;19972;-83
2023/06/28 09:57:45;;;;;;;;;;;18.20;99.90;;;;;;4999389;28;19909;-82
2023/06/28 10:00:18;;;;;;;;;;;18.20;99.90;;;;;;4999094;28;19921;-82
2023/06/28 10:02:53;;;;;;;;;;;18.20;99.90;;;;;;5020634;28;19920;-81
2023/06/28 10:05:23;;;;;;;;;;;18.20;99.90;;;;;;5021359;28;20396;-81
2023/06/28 10:07:55;;;;;;;;;;;18.40;99.90;;;;;;5000375;28;19913;-81
2023/06/28 10:10:38;;;;;;;;;;;18.50;99.90;;;;;;5023132;28;19908;-81
2023/06/28 10:13:20;;;;;;;;;;;18.60;99.90;;;;;;5019860;28;20396;-81
2023/06/28 10:16:05;;;;;;;;;;;18.60;99.90;;;;;;5019642;28;19921;-82
2023/06/28 10:18:51;;;;;;;;;;;18.70;99.90;;;;;;5019389;28;19913;-81
2023/06/28 10:21:31;;;;;;;;;;;18.70;99.90;;;;;;5003743;28;19921;-81
2023/06/28 10:24:23;;;;;;;;;;;18.70;99.90;;;;;;5019847;28;19912;-81
2023/06/28 10:27:00;;;;;;;;;;;19.00;99.90;;;;;;5020715;28;19913;-81
2023/06/28 10:29:30;;;;;;;;;;;19.00;99.90;;;;;;4998227;28;19987;-83
2023/06/28 10:31:56;;;;;;;;;;;19.20;99.90;;;;;;4996633;28;20002;-82
2023/06/28 10:34:29;;;;;;;;;;;19.40;99.90;;;;;;4998474;28;20245;-82
2023/06/28 10:37:04;;;;;;;;;;;19.60;99.90;;;;;;5000752;28;19936;-83
2023/06/28 10:39:35;;;;;;;;;;;19.80;99.90;;;;;;5033147;28;20481;-82
2023/06/28 10:42:09;;;;;;;;;;;20.00;99.90;;;;;;5001024;28;19946;-83
2023/06/28 10:44:54;;;;;;;;;;;20.10;99.90;;;;;;5016081;28;19967;-83
2023/06/28 10:47:20;;;;;;;;;;;20.40;99.90;;;;;;4998976;28;19955;-83
2023/06/28 10:50:04;;;;;;;;;;;20.40;99.90;;;;;;5018913;28;20369;-81
2023/06/28 10:52:33;;;;;;;;;;;20.60;99.90;;;;;;5034540;28;19936;-82
2023/06/28 10:55:04;;;;;;;;;;;20.90;99.90;;;;;;4996819;28;20377;-82
2023/06/28 10:57:43;;;;;;;;;;;21.20;99.90;;;;;;5019294;28;20028;-81
2023/06/28 11:00:30;;;;;;;;;;;21.30;99.90;;;;;;5019823;28;20004;-82
2023/06/28 11:03:04;;;;;;;;;;;21.40;99.90;;;;;;4999282;28;19974;-82
2023/06/28 11:05:48;;;;;;;;;;;21.40;99.90;;;;;;5000386;28;19917;-82
2023/06/28 11:08:17;;;;;;;;;;;21.60;99.90;;;;;;5034116;28;19966;-83
2023/06/28 11:10:48;;;;;;;;;;;22.00;99.90;;;;;;4997520;28;19971;-84
2023/06/28 11:13:32;;;;;;;;;;;22.30;99.90;;;;;;5021682;28;19917;-82
2023/06/28 11:16:20;;;;;;;;;;;22.40;99.90;;;;;;5018315;28;19920;-81
2023/06/28 11:19:06;;;;;;;;;;;22.50;99.90;;;;;;4982667;28;20372;-83
2023/06/28 11:21:37;;;;;;;;;;;22.80;99.90;;;;;;5019135;28;19917;-83
2023/06/28 11:24:16;;;;;;;;;;;23.00;99.90;;;;;;5033866;28;19985;-82
2023/06/28 11:26:44;;;;;;;;;;;23.10;99.90;;;;;;5016439;28;19999;-82
2023/06/28 11:29:19;;;;;;;;;;;23.30;99.90;;;;;;5015835;28;20015;-82
2023/06/28 11:31:53;;;;;;;;;;;23.60;99.90;;;;;;5021124;28;20288;-82
2023/06/28 11:34:30;;;;;;;;;;;24.00;99.90;;;;;;5019645;28;19909;-82
2023/06/28 11:37:14;;;;;;;;;;;24.20;99.90;;;;;;5019644;28;19924;-82
2023/06/28 11:39:46;;;;;;;;;;;24.30;99.90;;;;;;5016503;28;20019;-81
2023/06/28 11:42:19;;;;;;;;;;;24.20;99.90;;;;;;4997324;28;19999;-81
2023/06/28 11:44:52;;;;;;;;;;;24.10;99.90;;;;;;5031778;28;19920;-82
2023/06/28 11:47:21;;;;;;;;;;;24.10;99.90;;;;;;5019656;28;19917;-82
2023/06/28 11:49:47;;;;;;;;;;;24.00;99.90;;;;;;5013650;28;19913;-81
2023/06/28 11:52:24;;;;;;;;;;;23.90;99.90;;;;;;5020171;28;20393;-82
2023/06/28 11:54:56;;;;;;;;;;;23.70;99.90;;;;;;5012693;28;19917;-82
2023/06/28 11:57:24;;;;;;;;;;;23.70;99.90;;;;;;4996640;28;19920;-82
2023/06/28 11:59:52;;;;;;;;;;;23.60;99.90;;;;;;4998256;28;19913;-81
2023/06/28 12:02:18;;;;;;;;;;;23.60;99.90;;;;;;5015638;28;20380;-81
2023/06/28 12:04:54;;;;;;;;;;;23.50;99.90;;;;;;4998142;28;19917;-81
2023/06/28 12:07:26;;;;;;;;;;;23.50;99.90;;;;;;5028956;28;19921;-80
2023/06/28 12:09:59;;;;;;;;;;;23.30;99.90;;;;;;5019306;28;20019;-81
2023/06/28 12:12:42;;;;;;;;;;;23.30;99.90;;;;;;5032898;28;19913;-80
2023/06/28 12:15:15;;;;;;;;;;;23.40;99.90;;;;;;4996563;28;19983;-81
2023/06/28 12:17:43;;;;;;;;;;;23.60;99.90;;;;;;5000953;28;19956;-81
2023/06/28 12:20:18;;;;;;;;;;;23.80;99.90;;;;;;5018029;28;22380;-82
2023/06/28 12:23:04;;;;;;;;;;;24.00;99.90;;;;;;5016451;28;19967;-80
2023/06/28 12:25:30;;;;;;;;;;;24.10;99.90;;;;;;5023024;28;19920;-82
2023/06/28 12:28:04;;;;;;;;;;;24.10;99.90;;;;;;5001902;28;19913;-81
2023/06/28 12:30:30;;;;;;;;;;;24.00;99.90;;;;;;5019754;28;19998;-81
2023/06/28 12:32:57;;;;;;;;;;;23.90;99.90;;;;;;4995511;28;20687;-81
2023/06/28 12:35:24;;;;;;;;;;;23.80;99.90;;;;;;5035276;28;20392;-81
2023/06/28 12:38:01;;;;;;;;;;;23.70;99.90;;;;;;5035160;28;19924;-81
2023/06/28 12:40:31;;;;;;;;;;;23.60;99.90;;;;;;5017098;28;19953;-80
2023/06/28 12:43:10;;;;;;;;;;;23.60;99.90;;;;;;5002939;28;19920;-81
2023/06/28 12:45:43;;;;;;;;;;;23.50;99.90;;;;;;4995179;28;19909;-80
2023/06/28 12:48:16;;;;;;;;;;;23.50;99.90;;;;;;5027175;28;20371;-80
2023/06/28 12:50:51;;;;;;;;;;;23.60;99.90;;;;;;5021563;28;19912;-81
2023/06/28 12:53:18;;;;;;;;;;;23.90;99.90;;;;;;4996838;28;19921;-80
2023/06/28 12:55:44;;;;;;;;;;;24.10;99.90;;;;;;5035485;28;19952;-82
2023/06/28 12:58:11;;;;;;;;;;;24.40;99.90;;;;;;4993719;28;19992;-80
2023/06/28 13:00:40;;;;;;;;;;;24.60;99.90;;;;;;4995692;28;19916;-80
2023/06/28 13:03:10;;;;;;;;;;;24.90;99.90;;;;;;4998859;28;20027;-80
2023/06/28 13:05:48;;;;;;;;;;;25.20;99.90;;;;;;5003290;28;19917;-81
2023/06/28 13:08:15;;;;;;;;;;;25.30;99.90;;;;;;5020256;28;19913;-81
2023/06/28 13:10:45;;;;;;;;;;;25.50;99.90;;;;;;5020640;28;19963;-82
2023/06/28 13:13:21;;;;;;;;;;;25.80;99.90;;;;;;5023252;28;19962;-82
2023/06/28 13:15:51;;;;;;;;;;;26.00;99.90;;;;;;5006755;28;19912;-81
2023/06/28 13:18:17;;;;;;;;;;;26.10;99.90;;;;;;5039087;28;19921;-82
2023/06/28 13:20:45;;;;;;;;;;;26.20;99.90;;;;;;5003788;28;19924;-82
2023/06/28 13:23:11;;;;;;;;;;;26.10;99.90;;;;;;5004225;28;19916;-81
2023/06/28 13:28:38;;;;;;;;;;;26.40;99.90;;;;;;5023214;28;20007;-82
2023/06/28 13:31:04;;;;;;;;;;;26.70;99.90;;;;;;5001056;28;19913;-82
2023/06/28 13:33:30;;;;;;;;;;;27.00;99.90;;;;;;5003874;28;19909;-81
2023/06/28 13:35:56;;;;;;;;;;;27.20;99.90;;;;;;5001127;28;19971;-81
2023/06/28 13:38:28;;;;;;;;;;;27.20;99.90;;;;;;4999109;28;19925;-81
2023/06/28 13:41:01;;;;;;;;;;;27.00;99.90;;;;;;4999844;28;19920;-81
2023/06/28 13:43:28;;;;;;;;;;;26.70;99.90;;;;;;5002723;28;19928;-81
2023/06/28 13:45:57;;;;;;;;;;;26.50;99.90;;;;;;4983134;28;19913;-80
2023/06/28 13:48:40;;;;;;;;;;;26.30;99.90;;;;;;5019494;28;19970;-80
2023/06/28 13:51:16;;;;;;;;;;;26.50;99.90;;;;;;5034341;28;20082;-79
2023/06/28 13:54:08;;;;;;;;;;;26.80;99.90;;;;;;5017586;28;20586;-80
2023/06/28 13:56:49;;;;;;;;;;;27.10;99.90;;;;;;5002016;28;19921;-80
2023/06/28 13:59:21;;;;;;;;;;;27.00;99.90;;;;;;5019879;28;19936;-80
2023/06/28 14:01:57;;;;;;;;;;;26.90;99.90;;;;;;4999950;28;19971;-79
2023/06/28 14:04:52;;;;;;;;;;;26.90;99.90;;;;;;4997932;28;19964;-79
2023/06/28 14:07:33;;;;;;;;;;;27.00;99.90;;;;;;5018026;28;19912;-80
2023/06/28 14:10:14;;;;;;;;;;;26.80;99.90;;;;;;5036544;28;19939;-79
2023/06/28 14:12:49;;;;;;;;;;;26.60;99.90;;;;;;5000106;28;20147;-79
2023/06/28 14:15:23;;;;;;;;;;;26.40;99.90;;;;;;4997499;28;19917;-80
2023/06/28 14:18:04;;;;;;;;;;;26.50;99.90;;;;;;4996513;28;20384;-80
2023/06/28 14:20:42;;;;;;;;;;;26.70;99.90;;;;;;5017984;28;19909;-80
2023/06/28 14:23:10;;;;;;;;;;;26.90;99.90;;;;;;5035805;28;20067;-79
2023/06/28 14:25:48;;;;;;;;;;;27.00;99.90;;;;;;5020660;28;19963;-79
2023/06/28 14:28:21;;;;;;;;;;;27.20;99.90;;;;;;5003650;28;19915;-81
2023/06/28 14:30:46;;;;;;;;;;;27.30;99.90;;;;;;5020916;28;19921;-80